sensor_id;sensor_type;location;lat;lon;timestamp;pressure;altitude;pressure_sealevel;temperature
67501;BMP180;54349;52.528;19.760;2023-04-25T00:01:51;99389.00;;;24.00
67501;BMP180;54349;52.528;19.760;2023-04-25T00:04:20;99392.00;;;24.00
67501;BMP180;54349;52.528;19.760;2023-04-25T00:06:50;99393.60;;;24.00
67501;BMP180;54349;52.528;19.760;2023-04-25T00:09:18;99397.40;;;24.00
67501;BMP180;54349;52.528;19.760;2023-04-25T00:11:46;99397.40;;;24.00
67501;BMP180;54349;52.528;19.760;2023-04-25T00:14:14;99397.20;;;24.00
67501;BMP180;54349;52.528;19.760;2023-04-25T00:16:42;99390.40;;;23.90
67501;BMP180;54349;52.528;19.760;2023-04-25T00:19:11;99397.20;;;23.90
67501;BMP180;54349;52.528;19.760;2023-04-25T00:21:41;99397.40;;;23.90
67501;BMP180;54349;52.528;19.760;2023-04-25T00:24:09;99395.80;;;23.90
67501;BMP180;54349;52.528;19.760;2023-04-25T00:26:38;99399.40;;;23.90
67501;BMP180;54349;52.528;19.760;2023-04-25T00:29:06;99396.20;;;23.90
67501;BMP180;54349;52.528;19.760;2023-04-25T00:31:34;99389.80;;;23.80
67501;BMP180;54349;52.528;19.760;2023-04-25T00:34:02;99388.00;;;23.80
67501;BMP180;54349;52.528;19.760;2023-04-25T00:36:30;99390.60;;;23.80
67501;BMP180;54349;52.528;19.760;2023-04-25T00:38:59;99389.80;;;23.80
67501;BMP180;54349;52.528;19.760;2023-04-25T00:41:27;99392.00;;;23.80
67501;BMP180;54349;52.528;19.760;2023-04-25T00:43:56;99393.20;;;23.80
67501;BMP180;54349;52.528;19.760;2023-04-25T00:46:25;99393.40;;;23.70
67501;BMP180;54349;52.528;19.760;2023-04-25T00:48:54;99391.40;;;23.70
67501;BMP180;54349;52.528;19.760;2023-04-25T00:51:23;99388.80;;;23.70
67501;BMP180;54349;52.528;19.760;2023-04-25T00:53:53;99387.40;;;23.70
67501;BMP180;54349;52.528;19.760;2023-04-25T00:56:21;99386.00;;;23.70
67501;BMP180;54349;52.528;19.760;2023-04-25T00:58:53;99388.60;;;23.70
67501;BMP180;54349;52.528;19.760;2023-04-25T01:01:24;99386.80;;;23.60
67501;BMP180;54349;52.528;19.760;2023-04-25T01:03:54;99384.80;;;23.60
67501;BMP180;54349;52.528;19.760;2023-04-25T01:06:23;99383.40;;;23.60
67501;BMP180;54349;52.528;19.760;2023-04-25T01:08:51;99389.00;;;23.60
67501;BMP180;54349;52.528;19.760;2023-04-25T01:11:19;99384.80;;;23.60
67501;BMP180;54349;52.528;19.760;2023-04-25T01:13:48;99387.60;;;23.60
67501;BMP180;54349;52.528;19.760;2023-04-25T01:16:16;99385.00;;;23.56
67501;BMP180;54349;52.528;19.760;2023-04-25T01:18:46;99382.00;;;23.50
67501;BMP180;54349;52.528;19.760;2023-04-25T01:21:14;99384.40;;;23.50
67501;BMP180;54349;52.528;19.760;2023-04-25T01:23:42;99383.60;;;23.50
67501;BMP180;54349;52.528;19.760;2023-04-25T01:26:12;99385.00;;;23.50
67501;BMP180;54349;52.528;19.760;2023-04-25T01:28:40;99386.20;;;23.50
67501;BMP180;54349;52.528;19.760;2023-04-25T01:31:12;99385.80;;;23.42
67501;BMP180;54349;52.528;19.760;2023-04-25T01:33:41;99384.20;;;23.40
67501;BMP180;54349;52.528;19.760;2023-04-25T01:36:09;99384.20;;;23.40
67501;BMP180;54349;52.528;19.760;2023-04-25T01:38:38;99381.80;;;23.40
67501;BMP180;54349;52.528;19.760;2023-04-25T01:41:07;99380.80;;;23.40
67501;BMP180;54349;52.528;19.760;2023-04-25T01:43:35;99384.60;;;23.40
67501;BMP180;54349;52.528;19.760;2023-04-25T01:46:04;99386.00;;;23.40
67501;BMP180;54349;52.528;19.760;2023-04-25T01:48:32;99382.40;;;23.40
67501;BMP180;54349;52.528;19.760;2023-04-25T01:51:00;99380.60;;;23.36
67501;BMP180;54349;52.528;19.760;2023-04-25T01:53:30;99380.60;;;23.30
67501;BMP180;54349;52.528;19.760;2023-04-25T01:55:59;99383.40;;;23.30
67501;BMP180;54349;52.528;19.760;2023-04-25T01:58:32;99382.00;;;23.30
67501;BMP180;54349;52.528;19.760;2023-04-25T02:01:06;99382.80;;;23.30
67501;BMP180;54349;52.528;19.760;2023-04-25T02:03:39;99386.00;;;23.30
67501;BMP180;54349;52.528;19.760;2023-04-25T02:06:15;99383.20;;;23.30
67501;BMP180;54349;52.528;19.760;2023-04-25T02:08:45;99376.20;;;23.22
67501;BMP180;54349;52.528;19.760;2023-04-25T02:11:14;99378.40;;;23.20
67501;BMP180;54349;52.528;19.760;2023-04-25T02:13:48;99377.00;;;23.20
67501;BMP180;54349;52.528;19.760;2023-04-25T02:16:25;99375.20;;;23.20
67501;BMP180;54349;52.528;19.760;2023-04-25T02:18:53;99383.20;;;23.20
67501;BMP180;54349;52.528;19.760;2023-04-25T02:21:22;99386.80;;;23.20
67501;BMP180;54349;52.528;19.760;2023-04-25T02:23:50;99385.20;;;23.18
67501;BMP180;54349;52.528;19.760;2023-04-25T02:26:20;99386.60;;;23.10
67501;BMP180;54349;52.528;19.760;2023-04-25T02:28:51;99382.80;;;23.10
67501;BMP180;54349;52.528;19.760;2023-04-25T02:31:19;99384.80;;;23.10
67501;BMP180;54349;52.528;19.760;2023-04-25T02:33:48;99384.00;;;23.10
67501;BMP180;54349;52.528;19.760;2023-04-25T02:36:17;99385.20;;;23.10
67501;BMP180;54349;52.528;19.760;2023-04-25T02:38:45;99386.80;;;23.10
67501;BMP180;54349;52.528;19.760;2023-04-25T02:41:13;99386.80;;;23.10
67501;BMP180;54349;52.528;19.760;2023-04-25T02:43:41;99386.40;;;23.10
67501;BMP180;54349;52.528;19.760;2023-04-25T02:46:09;99385.00;;;23.10
67501;BMP180;54349;52.528;19.760;2023-04-25T02:48:40;99384.80;;;23.06
67501;BMP180;54349;52.528;19.760;2023-04-25T02:51:09;99380.00;;;23.04
67501;BMP180;54349;52.528;19.760;2023-04-25T02:53:37;99382.00;;;23.00
67501;BMP180;54349;52.528;19.760;2023-04-25T02:56:06;99381.60;;;23.00
67501;BMP180;54349;52.528;19.760;2023-04-25T02:58:34;99385.20;;;23.00
67501;BMP180;54349;52.528;19.760;2023-04-25T03:01:02;99381.20;;;23.00
67501;BMP180;54349;52.528;19.760;2023-04-25T03:03:30;99382.20;;;22.92
67501;BMP180;54349;52.528;19.760;2023-04-25T03:05:59;99383.40;;;22.90
67501;BMP180;54349;52.528;19.760;2023-04-25T03:08:30;99382.80;;;22.90
67501;BMP180;54349;52.528;19.760;2023-04-25T03:11:01;99386.80;;;22.90
67501;BMP180;54349;52.528;19.760;2023-04-25T03:13:29;99378.20;;;22.90
67501;BMP180;54349;52.528;19.760;2023-04-25T03:15:57;99379.60;;;22.86
67501;BMP180;54349;52.528;19.760;2023-04-25T03:18:26;99380.60;;;22.80
67501;BMP180;54349;52.528;19.760;2023-04-25T03:20:55;99382.40;;;22.80
67501;BMP180;54349;52.528;19.760;2023-04-25T03:23:24;99382.00;;;22.80
67501;BMP180;54349;52.528;19.760;2023-04-25T03:25:54;99381.80;;;22.80
67501;BMP180;54349;52.528;19.760;2023-04-25T03:28:25;99388.00;;;22.74
67501;BMP180;54349;52.528;19.760;2023-04-25T03:30:53;99383.80;;;22.70
67501;BMP180;54349;52.528;19.760;2023-04-25T03:33:22;99385.60;;;22.70
67501;BMP180;54349;52.528;19.760;2023-04-25T03:35:50;99385.60;;;22.70
67501;BMP180;54349;52.528;19.760;2023-04-25T03:38:18;99387.60;;;22.70
67501;BMP180;54349;52.528;19.760;2023-04-25T03:40:46;99387.60;;;22.70
67501;BMP180;54349;52.528;19.760;2023-04-25T03:43:19;99389.00;;;22.70
67501;BMP180;54349;52.528;19.760;2023-04-25T03:45:55;99392.00;;;22.60
67501;BMP180;54349;52.528;19.760;2023-04-25T03:48:23;99395.80;;;22.60
67501;BMP180;54349;52.528;19.760;2023-04-25T03:50:54;99401.60;;;22.60
67501;BMP180;54349;52.528;19.760;2023-04-25T03:53:24;99398.60;;;22.60
67501;BMP180;54349;52.528;19.760;2023-04-25T03:56:11;99403.80;;;22.60
67501;BMP180;54349;52.528;19.760;2023-04-25T03:58:39;99404.80;;;22.58
67501;BMP180;54349;52.528;19.760;2023-04-25T04:01:08;99405.20;;;22.52
67501;BMP180;54349;52.528;19.760;2023-04-25T04:03:37;99407.00;;;22.50
67501;BMP180;54349;52.528;19.760;2023-04-25T04:06:07;99404.80;;;22.50
67501;BMP180;54349;52.528;19.760;2023-04-25T04:08:39;99408.20;;;22.50
67501;BMP180;54349;52.528;19.760;2023-04-25T04:11:09;99411.40;;;22.50
67501;BMP180;54349;52.528;19.760;2023-04-25T04:13:38;99413.80;;;22.50
67501;BMP180;54349;52.528;19.760;2023-04-25T04:16:08;99412.40;;;22.50
67501;BMP180;54349;52.528;19.760;2023-04-25T04:18:36;99418.20;;;22.50
67501;BMP180;54349;52.528;19.760;2023-04-25T04:21:05;99416.80;;;22.44
67501;BMP180;54349;52.528;19.760;2023-04-25T04:23:36;99416.80;;;22.40
67501;BMP180;54349;52.528;19.760;2023-04-25T04:26:08;99420.20;;;22.40
67501;BMP180;54349;52.528;19.760;2023-04-25T04:28:49;99423.40;;;22.40
67501;BMP180;54349;52.528;19.760;2023-04-25T04:31:57;99426.40;;;22.40
67501;BMP180;54349;52.528;19.760;2023-04-25T04:34:26;99424.80;;;22.40
67501;BMP180;54349;52.528;19.760;2023-04-25T04:36:55;99429.60;;;22.40
67501;BMP180;54349;52.528;19.760;2023-04-25T04:39:23;99429.40;;;22.40
67501;BMP180;54349;52.528;19.760;2023-04-25T04:42:04;99434.00;;;22.40
67501;BMP180;54349;52.528;19.760;2023-04-25T04:44:47;99435.80;;;22.40
67501;BMP180;54349;52.528;19.760;2023-04-25T04:47:48;99438.20;;;22.36
67501;BMP180;54349;52.528;19.760;2023-04-25T04:50:36;99441.60;;;22.32
67501;BMP180;54349;52.528;19.760;2023-04-25T04:53:32;99435.80;;;22.30
67501;BMP180;54349;52.528;19.760;2023-04-25T04:56:21;99437.00;;;22.30
67501;BMP180;54349;52.528;19.760;2023-04-25T04:58:56;99440.40;;;22.30
67501;BMP180;54349;52.528;19.760;2023-04-25T05:01:44;99442.20;;;22.30
67501;BMP180;54349;52.528;19.760;2023-04-25T05:04:22;99445.00;;;22.30
67501;BMP180;54349;52.528;19.760;2023-04-25T05:07:05;99440.80;;;22.30
67501;BMP180;54349;52.528;19.760;2023-04-25T05:09:54;99439.40;;;22.22
67501;BMP180;54349;52.528;19.760;2023-04-25T05:13:01;99443.20;;;22.20
67501;BMP180;54349;52.528;19.760;2023-04-25T05:15:38;99444.80;;;22.20
67501;BMP180;54349;52.528;19.760;2023-04-25T05:18:30;99444.00;;;22.20
67501;BMP180;54349;52.528;19.760;2023-04-25T05:21:16;99450.40;;;22.20
67501;BMP180;54349;52.528;19.760;2023-04-25T05:23:55;99452.80;;;22.20
67501;BMP180;54349;52.528;19.760;2023-04-25T05:26:43;99449.60;;;22.20
67501;BMP180;54349;52.528;19.760;2023-04-25T05:29:28;99451.60;;;22.20
67501;BMP180;54349;52.528;19.760;2023-04-25T05:32:15;99457.60;;;22.20
67501;BMP180;54349;52.528;19.760;2023-04-25T05:34:46;99459.80;;;22.20
67501;BMP180;54349;52.528;19.760;2023-04-25T05:37:26;99464.60;;;22.20
67501;BMP180;54349;52.528;19.760;2023-04-25T05:39:58;99467.60;;;22.20
67501;BMP180;54349;52.528;19.760;2023-04-25T05:42:55;99460.20;;;22.20
67501;BMP180;54349;52.528;19.760;2023-04-25T05:45:43;99468.00;;;22.16
67501;BMP180;54349;52.528;19.760;2023-04-25T05:48:26;99473.80;;;22.10
67501;BMP180;54349;52.528;19.760;2023-04-25T05:51:09;99471.20;;;22.10
67501;BMP180;54349;52.528;19.760;2023-04-25T05:53:56;99472.20;;;22.10
67501;BMP180;54349;52.528;19.760;2023-04-25T05:56:24;99473.00;;;22.10
67501;BMP180;54349;52.528;19.760;2023-04-25T05:58:53;99475.00;;;22.10
67501;BMP180;54349;52.528;19.760;2023-04-25T06:01:23;99471.60;;;22.10
67501;BMP180;54349;52.528;19.760;2023-04-25T06:03:51;99473.00;;;22.10
67501;BMP180;54349;52.528;19.760;2023-04-25T06:06:21;99473.20;;;22.10
67501;BMP180;54349;52.528;19.760;2023-04-25T06:08:49;99470.60;;;22.08
67501;BMP180;54349;52.528;19.760;2023-04-25T06:11:18;99468.80;;;22.00
67501;BMP180;54349;52.528;19.760;2023-04-25T06:13:47;99468.20;;;22.00
67501;BMP180;54349;52.528;19.760;2023-04-25T06:16:16;99478.00;;;22.00
67501;BMP180;54349;52.528;19.760;2023-04-25T06:18:45;99474.40;;;22.00
67501;BMP180;54349;52.528;19.760;2023-04-25T06:21:15;99479.40;;;22.00
67501;BMP180;54349;52.528;19.760;2023-04-25T06:23:43;99478.80;;;22.00
67501;BMP180;54349;52.528;19.760;2023-04-25T06:26:18;99483.20;;;22.00
67501;BMP180;54349;52.528;19.760;2023-04-25T06:28:47;99485.40;;;22.00
67501;BMP180;54349;52.528;19.760;2023-04-25T06:31:15;99480.80;;;21.98
67501;BMP180;54349;52.528;19.760;2023-04-25T06:33:44;99488.00;;;21.94
67501;BMP180;54349;52.528;19.760;2023-04-25T06:36:14;99489.00;;;21.90
67501;BMP180;54349;52.528;19.760;2023-04-25T06:38:43;99494.60;;;21.90
67501;BMP180;54349;52.528;19.760;2023-04-25T06:41:12;99498.60;;;21.90
67501;BMP180;54349;52.528;19.760;2023-04-25T06:43:42;99499.40;;;21.90
67501;BMP180;54349;52.528;19.760;2023-04-25T06:46:16;99498.60;;;21.90
67501;BMP180;54349;52.528;19.760;2023-04-25T06:48:46;99498.00;;;21.90
67501;BMP180;54349;52.528;19.760;2023-04-25T06:51:14;99502.00;;;21.90
67501;BMP180;54349;52.528;19.760;2023-04-25T06:53:42;99502.00;;;21.90
67501;BMP180;54349;52.528;19.760;2023-04-25T06:56:17;99502.60;;;21.90
67501;BMP180;54349;52.528;19.760;2023-04-25T06:59:06;99505.60;;;21.90
67501;BMP180;54349;52.528;19.760;2023-04-25T07:01:39;99508.80;;;21.90
67501;BMP180;54349;52.528;19.760;2023-04-25T07:04:19;99502.60;;;21.90
67501;BMP180;54349;52.528;19.760;2023-04-25T07:06:52;99503.20;;;21.90
67501;BMP180;54349;52.528;19.760;2023-04-25T07:09:24;99506.20;;;21.90
67501;BMP180;54349;52.528;19.760;2023-04-25T07:11:52;99505.00;;;21.90
67501;BMP180;54349;52.528;19.760;2023-04-25T07:14:21;99506.20;;;21.90
67501;BMP180;54349;52.528;19.760;2023-04-25T07:16:49;99506.40;;;21.90
67501;BMP180;54349;52.528;19.760;2023-04-25T07:19:18;99504.60;;;21.90
67501;BMP180;54349;52.528;19.760;2023-04-25T07:21:48;99506.80;;;21.90
67501;BMP180;54349;52.528;19.760;2023-04-25T07:24:16;99507.20;;;21.90
67501;BMP180;54349;52.528;19.760;2023-04-25T07:26:46;99503.80;;;21.90
67501;BMP180;54349;52.528;19.760;2023-04-25T07:29:45;99512.40;;;21.90
67501;BMP180;54349;52.528;19.760;2023-04-25T07:32:13;99511.00;;;21.90
67501;BMP180;54349;52.528;19.760;2023-04-25T07:34:44;99515.20;;;21.90
67501;BMP180;54349;52.528;19.760;2023-04-25T07:37:13;99519.00;;;21.90
67501;BMP180;54349;52.528;19.760;2023-04-25T07:39:54;99517.40;;;21.90
67501;BMP180;54349;52.528;19.760;2023-04-25T07:42:22;99521.00;;;21.90
67501;BMP180;54349;52.528;19.760;2023-04-25T07:44:51;99522.80;;;21.90
67501;BMP180;54349;52.528;19.760;2023-04-25T07:47:19;99527.20;;;21.90
67501;BMP180;54349;52.528;19.760;2023-04-25T07:49:48;99526.80;;;21.90
67501;BMP180;54349;52.528;19.760;2023-04-25T07:52:17;99528.40;;;21.90
67501;BMP180;54349;52.528;19.760;2023-04-25T07:54:50;99525.20;;;21.92
67501;BMP180;54349;52.528;19.760;2023-04-25T07:57:23;99527.60;;;21.96
67501;BMP180;54349;52.528;19.760;2023-04-25T07:59:53;99528.40;;;22.00
67501;BMP180;54349;52.528;19.760;2023-04-25T08:02:22;99530.80;;;22.00
67501;BMP180;54349;52.528;19.760;2023-04-25T08:04:50;99528.00;;;22.00
67501;BMP180;54349;52.528;19.760;2023-04-25T08:07:20;99534.20;;;22.00
67501;BMP180;54349;52.528;19.760;2023-04-25T08:09:52;99531.80;;;22.00
67501;BMP180;54349;52.528;19.760;2023-04-25T08:12:27;99536.80;;;22.00
67501;BMP180;54349;52.528;19.760;2023-04-25T08:14:56;99539.80;;;22.00
67501;BMP180;54349;52.528;19.760;2023-04-25T08:17:27;99539.20;;;22.00
67501;BMP180;54349;52.528;19.760;2023-04-25T08:19:55;99539.20;;;22.00
67501;BMP180;54349;52.528;19.760;2023-04-25T08:22:30;99541.40;;;22.00
67501;BMP180;54349;52.528;19.760;2023-04-25T08:25:21;99542.40;;;22.00
67501;BMP180;54349;52.528;19.760;2023-04-25T08:27:51;99542.60;;;22.00
67501;BMP180;54349;52.528;19.760;2023-04-25T08:30:22;99544.60;;;22.00
67501;BMP180;54349;52.528;19.760;2023-04-25T08:32:51;99544.00;;;22.00
67501;BMP180;54349;52.528;19.760;2023-04-25T08:35:38;99551.20;;;22.00
67501;BMP180;54349;52.528;19.760;2023-04-25T08:38:06;99546.60;;;22.00
67501;BMP180;54349;52.528;19.760;2023-04-25T08:40:38;99549.40;;;22.00
67501;BMP180;54349;52.528;19.760;2023-04-25T08:43:13;99551.20;;;22.00
67501;BMP180;54349;52.528;19.760;2023-04-25T08:45:43;99553.80;;;22.00
67501;BMP180;54349;52.528;19.760;2023-04-25T08:48:17;99553.60;;;22.00
67501;BMP180;54349;52.528;19.760;2023-04-25T08:50:51;99555.60;;;22.00
67501;BMP180;54349;52.528;19.760;2023-04-25T08:53:32;99557.40;;;22.00
67501;BMP180;54349;52.528;19.760;2023-04-25T08:56:05;99564.00;;;22.00
67501;BMP180;54349;52.528;19.760;2023-04-25T08:58:36;99564.40;;;22.00
67501;BMP180;54349;52.528;19.760;2023-04-25T09:01:06;99567.40;;;22.00
67501;BMP180;54349;52.528;19.760;2023-04-25T09:03:41;99568.60;;;22.00
67501;BMP180;54349;52.528;19.760;2023-04-25T09:06:12;99569.00;;;22.00
67501;BMP180;54349;52.528;19.760;2023-04-25T09:08:42;99567.40;;;22.02
67501;BMP180;54349;52.528;19.760;2023-04-25T09:11:12;99572.00;;;22.00
67501;BMP180;54349;52.528;19.760;2023-04-25T09:13:40;99570.80;;;22.00
67501;BMP180;54349;52.528;19.760;2023-04-25T09:16:32;99574.80;;;22.00
67501;BMP180;54349;52.528;19.760;2023-04-25T09:19:23;99576.40;;;22.00
67501;BMP180;54349;52.528;19.760;2023-04-25T09:22:10;99576.20;;;22.00
67501;BMP180;54349;52.528;19.760;2023-04-25T09:24:42;99575.60;;;22.00
67501;BMP180;54349;52.528;19.760;2023-04-25T09:27:18;99575.00;;;22.00
67501;BMP180;54349;52.528;19.760;2023-04-25T09:29:57;99578.20;;;22.04
67501;BMP180;54349;52.528;19.760;2023-04-25T09:32:39;99575.40;;;22.10
67501;BMP180;54349;52.528;19.760;2023-04-25T09:35:10;99575.00;;;22.10
67501;BMP180;54349;52.528;19.760;2023-04-25T09:37:40;99576.60;;;22.10
67501;BMP180;54349;52.528;19.760;2023-04-25T09:40:30;99571.40;;;22.08
67501;BMP180;54349;52.528;19.760;2023-04-25T09:43:20;99579.40;;;22.10
67501;BMP180;54349;52.528;19.760;2023-04-25T09:45:53;99575.40;;;22.10
67501;BMP180;54349;52.528;19.760;2023-04-25T09:48:28;99578.20;;;22.10
67501;BMP180;54349;52.528;19.760;2023-04-25T09:51:17;99577.40;;;22.08
67501;BMP180;54349;52.528;19.760;2023-04-25T09:53:47;99569.60;;;22.10
67501;BMP180;54349;52.528;19.760;2023-04-25T09:56:40;99572.20;;;22.10
67501;BMP180;54349;52.528;19.760;2023-04-25T09:59:11;99568.40;;;22.10
67501;BMP180;54349;52.528;19.760;2023-04-25T10:01:42;99569.80;;;22.10
67501;BMP180;54349;52.528;19.760;2023-04-25T10:04:25;99573.80;;;22.10
67501;BMP180;54349;52.528;19.760;2023-04-25T10:07:09;99577.40;;;22.10
67501;BMP180;54349;52.528;19.760;2023-04-25T10:09:39;99579.40;;;22.10
67501;BMP180;54349;52.528;19.760;2023-04-25T10:12:08;99581.20;;;22.10
67501;BMP180;54349;52.528;19.760;2023-04-25T10:14:38;99584.80;;;22.10
67501;BMP180;54349;52.528;19.760;2023-04-25T10:17:10;99581.80;;;22.10
67501;BMP180;54349;52.528;19.760;2023-04-25T10:19:39;99586.20;;;22.10
67501;BMP180;54349;52.528;19.760;2023-04-25T10:22:26;99583.00;;;22.10
67501;BMP180;54349;52.528;19.760;2023-04-25T10:24:58;99582.60;;;22.14
67501;BMP180;54349;52.528;19.760;2023-04-25T10:27:30;99587.40;;;22.18
67501;BMP180;54349;52.528;19.760;2023-04-25T10:30:09;99581.20;;;22.20
67501;BMP180;54349;52.528;19.760;2023-04-25T10:32:42;99585.80;;;22.20
67501;BMP180;54349;52.528;19.760;2023-04-25T10:35:14;99588.40;;;22.20
67501;BMP180;54349;52.528;19.760;2023-04-25T10:38:09;99588.00;;;22.20
67501;BMP180;54349;52.528;19.760;2023-04-25T10:40:38;99588.80;;;22.20
67501;BMP180;54349;52.528;19.760;2023-04-25T10:46:00;99586.40;;;22.20
67501;BMP180;54349;52.528;19.760;2023-04-25T10:48:31;99584.40;;;22.20
67501;BMP180;54349;52.528;19.760;2023-04-25T10:51:10;99587.60;;;22.20
67501;BMP180;54349;52.528;19.760;2023-04-25T10:53:39;99589.00;;;22.20
67501;BMP180;54349;52.528;19.760;2023-04-25T10:56:19;99594.20;;;22.20
67501;BMP180;54349;52.528;19.760;2023-04-25T10:58:50;99595.80;;;22.20
67501;BMP180;54349;52.528;19.760;2023-04-25T11:01:24;99593.80;;;22.20
67501;BMP180;54349;52.528;19.760;2023-04-25T11:03:58;99595.00;;;22.20
67501;BMP180;54349;52.528;19.760;2023-04-25T11:07:11;99592.40;;;22.20
67501;BMP180;54349;52.528;19.760;2023-04-25T11:09:39;99593.40;;;22.20
67501;BMP180;54349;52.528;19.760;2023-04-25T11:12:09;99594.20;;;22.20
67501;BMP180;54349;52.528;19.760;2023-04-25T11:14:40;99589.80;;;22.20
67501;BMP180;54349;52.528;19.760;2023-04-25T11:17:09;99590.80;;;22.20
67501;BMP180;54349;52.528;19.760;2023-04-25T11:19:39;99588.20;;;22.20
67501;BMP180;54349;52.528;19.760;2023-04-25T11:22:07;99592.20;;;22.20
67501;BMP180;54349;52.528;19.760;2023-04-25T11:24:35;99595.80;;;22.20
67501;BMP180;54349;52.528;19.760;2023-04-25T11:27:05;99600.40;;;22.20
67501;BMP180;54349;52.528;19.760;2023-04-25T11:29:36;99599.20;;;22.20
67501;BMP180;54349;52.528;19.760;2023-04-25T11:32:04;99601.00;;;22.20
67501;BMP180;54349;52.528;19.760;2023-04-25T11:34:34;99602.60;;;22.20
67501;BMP180;54349;52.528;19.760;2023-04-25T11:37:02;99602.20;;;22.20
67501;BMP180;54349;52.528;19.760;2023-04-25T11:39:31;99602.40;;;22.20
67501;BMP180;54349;52.528;19.760;2023-04-25T11:42:00;99599.00;;;22.20
67501;BMP180;54349;52.528;19.760;2023-04-25T11:44:33;99599.00;;;22.18
67501;BMP180;54349;52.528;19.760;2023-04-25T11:47:01;99596.40;;;22.20
67501;BMP180;54349;52.528;19.760;2023-04-25T11:49:31;99599.60;;;22.20
67501;BMP180;54349;52.528;19.760;2023-04-25T11:52:00;99594.80;;;22.20
67501;BMP180;54349;52.528;19.760;2023-04-25T11:54:28;99605.40;;;22.20
67501;BMP180;54349;52.528;19.760;2023-04-25T11:56:56;99603.00;;;22.20
67501;BMP180;54349;52.528;19.760;2023-04-25T11:59:25;99604.20;;;22.20
67501;BMP180;54349;52.528;19.760;2023-04-25T12:01:54;99599.20;;;22.20
67501;BMP180;54349;52.528;19.760;2023-04-25T12:04:24;99602.80;;;22.20
67501;BMP180;54349;52.528;19.760;2023-04-25T12:06:54;99596.60;;;22.20
67501;BMP180;54349;52.528;19.760;2023-04-25T12:09:32;99601.00;;;22.20
67501;BMP180;54349;52.528;19.760;2023-04-25T12:12:01;99594.80;;;22.20
67501;BMP180;54349;52.528;19.760;2023-04-25T12:14:35;99593.40;;;22.20
67501;BMP180;54349;52.528;19.760;2023-04-25T12:17:04;99593.80;;;22.20
67501;BMP180;54349;52.528;19.760;2023-04-25T12:19:38;99590.00;;;22.20
67501;BMP180;54349;52.528;19.760;2023-04-25T12:22:22;99590.20;;;22.20
67501;BMP180;54349;52.528;19.760;2023-04-25T12:24:50;99591.00;;;22.20
67501;BMP180;54349;52.528;19.760;2023-04-25T12:27:21;99592.40;;;22.20
67501;BMP180;54349;52.528;19.760;2023-04-25T12:29:56;99587.00;;;22.20
67501;BMP180;54349;52.528;19.760;2023-04-25T12:32:24;99590.20;;;22.20
67501;BMP180;54349;52.528;19.760;2023-04-25T12:34:54;99593.40;;;22.20
67501;BMP180;54349;52.528;19.760;2023-04-25T12:37:22;99589.80;;;22.20
67501;BMP180;54349;52.528;19.760;2023-04-25T12:39:50;99585.40;;;22.20
67501;BMP180;54349;52.528;19.760;2023-04-25T12:42:19;99588.40;;;22.20
67501;BMP180;54349;52.528;19.760;2023-04-25T12:44:47;99588.80;;;22.20
67501;BMP180;54349;52.528;19.760;2023-04-25T12:47:15;99586.60;;;22.20
67501;BMP180;54349;52.528;19.760;2023-04-25T12:49:44;99587.80;;;22.20
67501;BMP180;54349;52.528;19.760;2023-04-25T12:52:12;99592.00;;;22.20
67501;BMP180;54349;52.528;19.760;2023-04-25T12:54:40;99593.80;;;22.20
67501;BMP180;54349;52.528;19.760;2023-04-25T12:57:08;99591.80;;;22.20
67501;BMP180;54349;52.528;19.760;2023-04-25T12:59:36;99588.00;;;22.20
67501;BMP180;54349;52.528;19.760;2023-04-25T13:02:05;99593.00;;;22.20
67501;BMP180;54349;52.528;19.760;2023-04-25T13:04:34;99595.00;;;22.20
67501;BMP180;54349;52.528;19.760;2023-04-25T13:07:02;99595.20;;;22.20
67501;BMP180;54349;52.528;19.760;2023-04-25T13:09:31;99594.60;;;22.20
67501;BMP180;54349;52.528;19.760;2023-04-25T13:11:59;99597.00;;;22.20
67501;BMP180;54349;52.528;19.760;2023-04-25T13:14:27;99594.60;;;22.20
67501;BMP180;54349;52.528;19.760;2023-04-25T13:16:56;99594.00;;;22.20
67501;BMP180;54349;52.528;19.760;2023-04-25T13:19:24;99597.20;;;22.20
67501;BMP180;54349;52.528;19.760;2023-04-25T13:21:52;99596.80;;;22.20
67501;BMP180;54349;52.528;19.760;2023-04-25T13:24:21;99602.00;;;22.20
67501;BMP180;54349;52.528;19.760;2023-04-25T13:26:49;99601.60;;;22.20
67501;BMP180;54349;52.528;19.760;2023-04-25T13:29:17;99607.20;;;22.18
67501;BMP180;54349;52.528;19.760;2023-04-25T13:31:45;99604.00;;;22.16
67501;BMP180;54349;52.528;19.760;2023-04-25T13:34:14;99600.00;;;22.12
67501;BMP180;54349;52.528;19.760;2023-04-25T13:36:42;99599.00;;;22.10
67501;BMP180;54349;52.528;19.760;2023-04-25T13:39:11;99601.80;;;22.10
67501;BMP180;54349;52.528;19.760;2023-04-25T13:41:39;99602.20;;;22.10
67501;BMP180;54349;52.528;19.760;2023-04-25T13:44:07;99602.20;;;22.10
67501;BMP180;54349;52.528;19.760;2023-04-25T13:46:35;99600.40;;;22.10
67501;BMP180;54349;52.528;19.760;2023-04-25T13:49:08;99601.80;;;22.10
67501;BMP180;54349;52.528;19.760;2023-04-25T13:51:40;99604.60;;;22.10
67501;BMP180;54349;52.528;19.760;2023-04-25T13:54:10;99605.60;;;22.10
67501;BMP180;54349;52.528;19.760;2023-04-25T13:56:38;99609.20;;;22.10
67501;BMP180;54349;52.528;19.760;2023-04-25T13:59:06;99608.40;;;22.10
67501;BMP180;54349;52.528;19.760;2023-04-25T14:01:34;99606.80;;;22.10
67501;BMP180;54349;52.528;19.760;2023-04-25T14:04:04;99613.40;;;22.10
67501;BMP180;54349;52.528;19.760;2023-04-25T14:06:33;99617.60;;;22.10
67501;BMP180;54349;52.528;19.760;2023-04-25T14:09:02;99609.80;;;22.10
67501;BMP180;54349;52.528;19.760;2023-04-25T14:11:33;99613.80;;;22.10
67501;BMP180;54349;52.528;19.760;2023-04-25T14:14:01;99618.40;;;22.10
67501;BMP180;54349;52.528;19.760;2023-04-25T14:16:30;99616.80;;;22.10
67501;BMP180;54349;52.528;19.760;2023-04-25T14:19:00;99615.60;;;22.10
67501;BMP180;54349;52.528;19.760;2023-04-25T14:21:29;99615.00;;;22.02
67501;BMP180;54349;52.528;19.760;2023-04-25T14:24:00;99618.60;;;22.00
67501;BMP180;54349;52.528;19.760;2023-04-25T14:26:27;99615.80;;;22.00
67501;BMP180;54349;52.528;19.760;2023-04-25T14:28:56;99615.60;;;22.00